createdAt,value
2022-11-12T00:00:39.982Z,102022.22
2022-11-12T00:01:59.956Z,102018.75
2022-11-12T00:03:20.485Z,102009.53
2022-11-12T00:04:40.538Z,102013.19
2022-11-12T00:06:00.737Z,102013.41
2022-11-12T00:07:20.763Z,102017.91
2022-11-12T00:08:40.594Z,102021.56
2022-11-12T00:10:00.723Z,102016.19
2022-11-12T00:11:20.738Z,102019.63
2022-11-12T00:12:40.848Z,102014.03
2022-11-12T00:14:00.745Z,102018.75
2022-11-12T00:15:20.784Z,102019.63
2022-11-12T00:16:40.807Z,102012.97
2022-11-12T00:18:00.969Z,102016.63
2022-11-12T00:19:21.140Z,102010.19
2022-11-12T00:20:41.282Z,102014.91
2022-11-12T00:22:01.379Z,102014.91
2022-11-12T00:23:21.468Z,102011.91
2022-11-12T00:24:41.663Z,102011.91
2022-11-12T00:26:01.904Z,102013.59
2022-11-12T00:27:21.782Z,102018.97
2022-11-12T00:28:41.902Z,102020.66
2022-11-12T00:30:02.622Z,102019.59
2022-11-12T00:31:22.534Z,102013.78
2022-11-12T00:32:42.603Z,102010.97
2022-11-12T00:34:02.520Z,102013.78
2022-11-12T00:35:22.722Z,102008.19
2022-11-12T00:36:42.840Z,102020.44
2022-11-12T00:38:02.803Z,102018.72
2022-11-12T00:39:22.886Z,102020.91
2022-11-12T00:40:43.123Z,102019.81
2022-11-12T00:42:03.323Z,102016.78
2022-11-12T00:43:24.945Z,102017.66
2022-11-12T00:44:45.248Z,102018.28
2022-11-12T00:46:05.119Z,102016.56
2022-11-12T00:47:25.254Z,102023.84
2022-11-12T00:48:45.528Z,102028.59
2022-11-12T00:50:06.087Z,102025.56
2022-11-12T00:51:26.073Z,102028.97
2022-11-12T00:52:46.213Z,102032.44
2022-11-12T00:54:06.438Z,102028.56
2022-11-12T00:55:26.732Z,102032.19
2022-11-12T00:56:47.251Z,102023.59
2022-11-12T00:58:07.215Z,102028.09
2022-11-12T00:59:27.329Z,102015.22
2022-11-12T01:00:47.522Z,102022.50
2022-11-12T01:02:07.683Z,102016.91
2022-11-12T01:03:27.941Z,102025.06
2022-11-12T01:04:48.211Z,102011.09
2022-11-12T01:06:09.568Z,102019.94
2022-11-12T01:07:29.603Z,102013.09
2022-11-12T01:08:49.878Z,102013.09
2022-11-12T01:10:10.286Z,102017.81
2022-11-12T01:11:30.582Z,102012.22
2022-11-12T01:12:50.631Z,102025.56
2022-11-12T01:14:10.733Z,102018.72
2022-11-12T01:15:30.918Z,102024.53
2022-11-12T01:16:50.995Z,102024.16
2022-11-12T01:18:10.792Z,102027.78
2022-11-12T01:19:30.874Z,102023.91
2022-11-12T01:20:51.060Z,102017.25
2022-11-12T01:22:11.139Z,102013.59
2022-11-12T01:23:34.781Z,102009.72
2022-11-12T01:24:55.262Z,102020.91
2022-11-12T01:26:16.096Z,102015.97
2022-11-12T01:27:35.913Z,102014.91
2022-11-12T01:28:56.617Z,102018.56
2022-11-12T01:30:16.501Z,102014.03
2022-11-12T01:31:37.435Z,102014.91
2022-11-12T01:32:57.427Z,102012.97
2022-11-12T01:34:17.621Z,102014.25
2022-11-12T01:35:37.899Z,102013.41
2022-11-12T01:36:58.068Z,102009.53
2022-11-12T01:38:18.006Z,102013.19
2022-11-12T01:39:38.268Z,102012.31
2022-11-12T01:40:58.126Z,102012.97
2022-11-12T01:42:18.208Z,102009.75
2022-11-12T01:43:38.350Z,102001.16
2022-11-12T01:44:58.481Z,102011.25
2022-11-12T01:46:22.257Z,102006.75
2022-11-12T01:47:42.367Z,102009.75
2022-11-12T01:49:04.278Z,102004.19
2022-11-12T01:50:27.329Z,102005.88
2022-11-12T01:51:47.917Z,101980.63
2022-11-12T01:53:08.753Z,102001.16
2022-11-12T01:54:28.886Z,101999.44
2022-11-12T01:55:49.100Z,102013.41
2022-11-12T01:57:09.309Z,102010.63
2022-11-12T01:58:29.682Z,102005.88
2022-11-12T01:59:49.708Z,102008.44
2022-11-12T02:01:10.037Z,101998.16
2022-11-12T02:02:30.109Z,102001.59
2022-11-12T02:03:50.295Z,102009.09
2022-11-12T02:05:10.892Z,102004.38
2022-11-12T02:06:31.066Z,101998.56
2022-11-12T02:07:51.151Z,101999.66
2022-11-12T02:09:11.214Z,101997.94
2022-11-12T02:10:31.291Z,101997.72
2022-11-12T02:11:51.513Z,102007.78
2022-11-12T02:13:30.205Z,102001.34
2022-11-12T02:14:50.373Z,102004.16
2022-11-12T02:16:10.718Z,102005.84
2022-11-12T02:17:30.891Z,102005.84
2022-11-12T02:18:50.947Z,101993.59
2022-11-12T02:20:11.412Z,101998.09
2022-11-12T02:21:31.546Z,102002.84
2022-11-12T02:22:51.525Z,102006.47
2022-11-12T02:24:11.826Z,102004.53
2022-11-12T02:25:32.070Z,101999.81
2022-11-12T02:26:53.585Z,102000.03
2022-11-12T02:28:13.647Z,102005.84
2022-11-12T02:29:33.843Z,102007.56
2022-11-12T02:30:53.969Z,101996.41
2022-11-12T02:32:14.355Z,101998.09
2022-11-12T02:33:34.615Z,101998.72
2022-11-12T02:34:54.877Z,101995.94
2022-11-12T02:36:14.939Z,101997.41
2022-11-12T02:37:35.145Z,101994.44
2022-11-12T02:38:55.415Z,101995.06
2022-11-12T02:40:15.704Z,101993.97
2022-11-12T02:41:35.831Z,101993.72
2022-11-12T02:42:56.219Z,101997.63
2022-11-12T02:44:16.374Z,101992.88
2022-11-12T02:45:36.730Z,101997.38
2022-11-12T02:46:57.015Z,101994.59
2022-11-12T02:48:25.212Z,101993.50
2022-11-12T02:49:45.535Z,101991.56
2022-11-12T02:51:05.875Z,101992.41
2022-11-12T02:52:25.962Z,101991.34
2022-11-12T02:53:45.993Z,101992.19
2022-11-12T02:55:07.181Z,101978.22
2022-11-12T02:56:27.133Z,101983.81
2022-11-12T02:57:47.362Z,101973.72
2022-11-12T02:59:07.542Z,101969.22
2022-11-12T03:00:27.774Z,101978.47
2022-11-12T03:01:47.875Z,101977.38
2022-11-12T03:03:08.019Z,101977.38
2022-11-12T03:04:28.139Z,101977.16
2022-11-12T03:05:54.984Z,101976.28
2022-11-12T03:07:15.183Z,101982.53
2022-11-12T03:08:35.036Z,101978.66
2022-11-12T03:09:55.227Z,101978.66
2022-11-12T03:11:15.872Z,101981.25
2022-11-12T03:12:36.067Z,101987.69
2022-11-12T03:13:56.175Z,101983.38
2022-11-12T03:15:17.731Z,101983.38
2022-11-12T03:16:37.731Z,101976.94
2022-11-12T03:17:58.293Z,101978.03
2022-11-12T03:19:18.075Z,101976.09
2022-11-12T03:20:38.266Z,101981.69
2022-11-12T03:21:58.574Z,101976.94
2022-11-12T03:23:18.918Z,101976.28
2022-11-12T03:24:39.123Z,101991.09
2022-11-12T03:26:01.593Z,101986.41
2022-11-12T03:27:21.414Z,101986.41
2022-11-12T03:28:41.615Z,101986.41
2022-11-12T03:30:01.773Z,101975.25
2022-11-12T03:31:22.476Z,101978.03
2022-11-12T03:32:42.469Z,101978.03
2022-11-12T03:34:02.323Z,101980.81
2022-11-12T03:35:22.245Z,101976.28
2022-11-12T03:36:42.474Z,101966.50
2022-11-12T03:38:02.678Z,101976.94
2022-11-12T03:39:22.447Z,101978.66
2022-11-12T03:40:42.459Z,101972.22
2022-11-12T03:42:02.764Z,101976.94
2022-11-12T03:43:22.666Z,101979.53
2022-11-12T03:44:42.670Z,101977.84
2022-11-12T03:46:02.581Z,101981.72
2022-11-12T03:47:22.806Z,101973.34
2022-11-12T03:48:42.900Z,101973.97
2022-11-12T03:50:02.604Z,101974.59
2022-11-12T03:51:22.744Z,101977.38
2022-11-12T03:52:48.727Z,101975.44
2022-11-12T03:54:08.833Z,101974.34
2022-11-12T03:55:29.115Z,101970.50
2022-11-12T03:56:48.976Z,101961.28
2022-11-12T03:58:09.247Z,101960.63
2022-11-12T03:59:29.437Z,101961.09
2022-11-12T04:00:50.034Z,101961.56
2022-11-12T04:02:14.467Z,101966.91
2022-11-12T04:03:34.534Z,101965.81
2022-11-12T04:05:13.500Z,101961.09
2022-11-12T04:06:52.311Z,101952.72
2022-11-12T04:08:34.325Z,101949.69
2022-11-12T04:09:54.466Z,101951.63
2022-11-12T04:11:15.508Z,101948.84
2022-11-12T04:12:54.388Z,101949.91
2022-11-12T04:14:14.378Z,101948.22
2022-11-12T04:15:34.575Z,101955.50
2022-11-12T04:17:13.363Z,101945.41
2022-11-12T04:18:52.166Z,101947.13
2022-11-12T04:20:30.831Z,101953.41
2022-11-12T04:21:50.940Z,101951.47
2022-11-12T04:23:11.092Z,101965.44
2022-11-12T04:24:53.411Z,101958.75
2022-11-12T04:26:25.127Z,101963.72
2022-11-12T04:27:45.022Z,101972.94
2022-11-12T04:29:23.402Z,101964.16
2022-11-12T04:30:43.608Z,101969.09
2022-11-12T04:32:03.955Z,101967.63
2022-11-12T04:33:24.089Z,101968.94
2022-11-12T04:34:44.382Z,101962.75
2022-11-12T04:36:04.282Z,101967.25
2022-11-12T04:37:24.970Z,101966.38
2022-11-12T04:38:45.163Z,101963.78
2022-11-12T04:40:25.615Z,101963.38
2022-11-12T04:42:04.331Z,101960.56
2022-11-12T04:43:43.009Z,101971.75
2022-11-12T04:45:05.078Z,101965.53
2022-11-12T04:46:25.212Z,101973.91
2022-11-12T04:47:45.356Z,101967.25
2022-11-12T04:49:05.441Z,101974.34
2022-11-12T04:50:25.506Z,101967.66
2022-11-12T04:52:04.192Z,101966.81
2022-11-12T04:53:25.315Z,101965.97
2022-11-12T04:54:45.379Z,101971.53
2022-11-12T04:56:05.572Z,101974.34
2022-11-12T04:57:25.871Z,101968.53
2022-11-12T04:58:45.834Z,101954.19
2022-11-12T05:00:06.134Z,101965.34
2022-11-12T05:01:26.203Z,101955.09
2022-11-12T05:02:46.651Z,101955.53
2022-11-12T05:04:06.774Z,101957.06
2022-11-12T05:05:31.123Z,101958.63
2022-11-12T05:06:54.532Z,101953.06
2022-11-12T05:08:15.006Z,101958.00
2022-11-12T05:09:35.180Z,101955.44
2022-11-12T05:10:55.170Z,101956.28
2022-11-12T05:12:15.140Z,101963.34
2022-11-12T05:13:35.338Z,101967.63
2022-11-12T05:14:55.898Z,101968.72
2022-11-12T05:16:15.775Z,101983.75
2022-11-12T05:17:35.916Z,101971.50
2022-11-12T05:18:56.099Z,101980.72
2022-11-12T05:20:16.424Z,101979.47
2022-11-12T05:21:54.918Z,101983.38
2022-11-12T05:23:15.044Z,101984.66
2022-11-12T05:24:42.788Z,101977.38
2022-11-12T05:26:03.127Z,101979.94
2022-11-12T05:27:23.219Z,101982.97
2022-11-12T05:28:43.247Z,101985.75
2022-11-12T05:30:03.451Z,101986.84
2022-11-12T05:31:23.584Z,101977.44
2022-11-12T05:32:43.902Z,101986.66
2022-11-12T05:34:03.823Z,101983.88
2022-11-12T05:35:23.868Z,101990.06
2022-11-12T05:36:44.002Z,101991.56
2022-11-12T05:38:03.989Z,101990.06
2022-11-12T05:39:24.142Z,101989.00
2022-11-12T05:40:44.863Z,101990.31
2022-11-12T05:42:13.021Z,101987.28
2022-11-12T05:43:33.371Z,101996.28
2022-11-12T05:44:53.497Z,102001.84
2022-11-12T05:46:13.551Z,101999.28
2022-11-12T05:47:33.546Z,101992.88
2022-11-12T05:48:53.839Z,101996.72
2022-11-12T05:50:14.236Z,101999.75
2022-11-12T05:51:34.132Z,102005.31
2022-11-12T05:52:54.271Z,102002.31
2022-11-12T05:54:14.068Z,101999.53
2022-11-12T05:55:37.042Z,102003.16
2022-11-12T05:56:57.058Z,101995.03
2022-11-12T05:58:17.221Z,102010.91
2022-11-12T05:59:37.222Z,102001.91
2022-11-12T06:00:57.248Z,102008.53
2022-11-12T06:02:17.274Z,102003.19
2022-11-12T06:03:37.259Z,102011.53
2022-11-12T06:04:57.345Z,102010.47
2022-11-12T06:06:18.140Z,102016.03
2022-11-12T06:07:38.543Z,102005.75
2022-11-12T06:08:58.606Z,102009.38
2022-11-12T06:10:20.640Z,102012.19
2022-11-12T06:11:41.000Z,102015.63
2022-11-12T06:13:01.056Z,102013.91
2022-11-12T06:14:21.296Z,102011.97
2022-11-12T06:15:41.708Z,102011.75
2022-11-12T06:17:01.712Z,102017.34
2022-11-12T06:18:22.015Z,102002.31
2022-11-12T06:19:41.970Z,102008.97
2022-11-12T06:21:21.592Z,102002.31
2022-11-12T06:22:41.753Z,101994.16
2022-11-12T06:24:01.955Z,102004.47
2022-11-12T06:25:22.188Z,102010.06
2022-11-12T06:26:42.418Z,102001.03
2022-11-12T06:28:02.566Z,102000.16
2022-11-12T06:29:22.676Z,101996.34
2022-11-12T06:30:42.689Z,102000.69
2022-11-12T06:32:03.019Z,102002.63
2022-11-12T06:33:23.227Z,102009.25
2022-11-12T06:34:43.583Z,102005.63
2022-11-12T06:36:04.482Z,102003.13
2022-11-12T06:37:24.679Z,102005.03
2022-11-12T06:38:45.400Z,102000.31
2022-11-12T06:40:05.789Z,102002.47
2022-11-12T06:41:25.857Z,102002.03
2022-11-12T06:42:46.089Z,102004.63
2022-11-12T06:44:06.302Z,102009.31
2022-11-12T06:45:26.515Z,102006.53
2022-11-12T06:46:46.325Z,102008.47
2022-11-12T06:48:06.398Z,102011.94
2022-11-12T06:49:26.377Z,102004.88
2022-11-12T06:50:46.441Z,102008.06
2022-11-12T06:52:06.480Z,102007.63
2022-11-12T06:53:26.355Z,102008.06
2022-11-12T06:54:46.341Z,102009.31
2022-11-12T06:56:07.205Z,102013.38
2022-11-12T06:57:27.008Z,102017.44
2022-11-12T06:58:47.027Z,102014.66
2022-11-12T07:00:07.200Z,102017.44
2022-11-12T07:01:27.112Z,102015.75
2022-11-12T07:02:47.261Z,102016.38
2022-11-12T07:04:07.236Z,102016.59
2022-11-12T07:05:27.464Z,102021.09
2022-11-12T07:06:47.707Z,102023.44
2022-11-12T07:08:07.717Z,102022.16
2022-11-12T07:09:27.757Z,102016.38
2022-11-12T07:10:47.870Z,102016.16
2022-11-12T07:12:08.091Z,102020.66
2022-11-12T07:13:29.656Z,102013.34
2022-11-12T07:14:50.303Z,102017.44
2022-11-12T07:16:11.161Z,102019.16
2022-11-12T07:17:30.929Z,102011.03
2022-11-12T07:18:51.060Z,102023.44
2022-11-12T07:20:11.365Z,102019.16
2022-11-12T07:21:31.340Z,102021.72
2022-11-12T07:22:51.247Z,102015.28
2022-11-12T07:24:11.412Z,102014.84
2022-11-12T07:25:31.573Z,102019.34
2022-11-12T07:26:51.854Z,102026.84
2022-11-12T07:28:11.917Z,102015.06
2022-11-12T07:29:46.846Z,102027.06
2022-11-12T07:31:08.527Z,102024.50
2022-11-12T07:32:28.905Z,102025.13
2022-11-12T07:33:49.298Z,102026.84
2022-11-12T07:35:09.660Z,102026.00
2022-11-12T07:36:29.766Z,102017.63
2022-11-12T07:37:49.948Z,102018.25
2022-11-12T07:39:10.077Z,102013.75
2022-11-12T07:40:30.346Z,102021.28
2022-11-12T07:41:51.579Z,102022.97
2022-11-12T07:43:11.648Z,102018.25
2022-11-12T07:44:31.808Z,102005.63
2022-11-12T07:45:51.906Z,102018.66
2022-11-12T07:47:12.019Z,102009.84
2022-11-12T07:48:32.144Z,102015.63
2022-11-12T07:49:52.161Z,102018.59
2022-11-12T07:51:13.874Z,102012.56
2022-11-12T07:52:34.751Z,102013.19
2022-11-12T07:53:59.314Z,102022.84
2022-11-12T07:55:19.848Z,102013.16
2022-11-12T07:56:39.664Z,102018.28
2022-11-12T07:58:00.167Z,102011.00
2022-11-12T07:59:19.940Z,102010.78
2022-11-12T08:00:40.227Z,102014.66
2022-11-12T08:02:00.238Z,102020.22
2022-11-12T08:03:20.358Z,102012.72
2022-11-12T08:04:40.425Z,102015.97
2022-11-12T08:06:01.270Z,102015.97
2022-11-12T08:07:21.511Z,102014.88
2022-11-12T08:08:41.676Z,102016.81
2022-11-12T08:10:01.789Z,102007.38
2022-11-12T08:11:21.783Z,102006.28
2022-11-12T08:12:41.987Z,102009.06
2022-11-12T08:14:01.902Z,102010.78
2022-11-12T08:15:21.902Z,102010.78
2022-11-12T08:16:42.150Z,102016.38
2022-11-12T08:18:02.542Z,102022.78
2022-11-12T08:19:22.850Z,102021.09
2022-11-12T08:20:43.015Z,102012.72
2022-11-12T08:22:03.387Z,102009.94
2022-11-12T08:23:23.550Z,102013.56
2022-11-12T08:24:43.632Z,102012.50
2022-11-12T08:26:04.133Z,102016.13
2022-11-12T08:27:24.254Z,102013.34
2022-11-12T08:28:44.448Z,102007.81
2022-11-12T08:30:05.038Z,102020.63
2022-11-12T08:31:25.165Z,102028.81
2022-11-12T08:32:45.399Z,102031.78
2022-11-12T08:34:12.457Z,102012.53
2022-11-12T08:35:32.752Z,102025.34
2022-11-12T08:36:52.826Z,102029.00
2022-11-12T08:38:14.170Z,102032.66
2022-11-12T08:39:34.327Z,102036.31
2022-11-12T08:40:54.453Z,102027.06
2022-11-12T08:42:14.399Z,102026.22
2022-11-12T08:43:34.721Z,102028.81
2022-11-12T08:44:54.992Z,102026.00
2022-11-12T08:46:15.178Z,102029.66
2022-11-12T08:47:35.222Z,102025.78
2022-11-12T08:48:55.372Z,102026.66
2022-11-12T08:50:15.509Z,102032.22
2022-11-12T08:51:35.581Z,102035.00
2022-11-12T08:53:05.889Z,102036.09
2022-11-12T08:54:25.751Z,102031.38
2022-11-12T08:55:45.710Z,102037.81
2022-11-12T08:57:05.651Z,102023.84
2022-11-12T08:58:26.069Z,102023.22
2022-11-12T08:59:46.446Z,102035.25
2022-11-12T09:01:06.901Z,102027.28
2022-11-12T09:02:27.084Z,102024.09
2022-11-12T09:03:47.163Z,102023.88
2022-11-12T09:05:07.585Z,102029.22
2022-11-12T09:06:27.610Z,102024.28
2022-11-12T09:07:50.758Z,102029.22
2022-11-12T09:09:11.196Z,102024.47
2022-11-12T09:10:31.047Z,102026.19
2022-11-12T09:11:51.173Z,102030.06
2022-11-12T09:13:11.285Z,102030.06
2022-11-12T09:14:31.349Z,102033.72
2022-11-12T09:15:51.567Z,102029.22
2022-11-12T09:17:12.059Z,102028.97
2022-11-12T09:18:32.010Z,102028.75
2022-11-12T09:19:52.176Z,102028.53
2022-11-12T09:21:12.590Z,102024.88
2022-11-12T09:22:33.511Z,102032.16
2022-11-12T09:23:53.654Z,102029.59
2022-11-12T09:25:13.799Z,102036.91
2022-11-12T09:26:33.812Z,102033.25
2022-11-12T09:27:54.290Z,102034.72
2022-11-12T09:29:14.219Z,102030.84
2022-11-12T09:30:34.749Z,102023.34
2022-11-12T09:31:54.684Z,102027.03
2022-11-12T09:33:17.938Z,102024.00
2022-11-12T09:34:38.222Z,102022.69
2022-11-12T09:36:00.290Z,102020.97
2022-11-12T09:37:20.363Z,102021.59
2022-11-12T09:38:40.435Z,102024.16
2022-11-12T09:40:00.507Z,102021.38
2022-11-12T09:41:22.754Z,102014.94
2022-11-12T09:42:42.642Z,102013.88
2022-11-12T09:44:09.704Z,102023.31
2022-11-12T09:45:30.245Z,102027.81
2022-11-12T09:47:00.348Z,102029.13
2022-11-12T09:48:21.495Z,102020.53
2022-11-12T09:49:43.682Z,102017.75
2022-11-12T09:51:05.001Z,102026.50
2022-11-12T09:52:25.890Z,102020.06
2022-11-12T09:53:56.092Z,102017.50
2022-11-12T09:55:17.210Z,102015.78
2022-11-12T09:56:37.085Z,102011.69
2022-11-12T09:57:57.339Z,102017.75
2022-11-12T09:59:17.515Z,102020.53
2022-11-12T10:00:40.089Z,102023.09
2022-11-12T10:02:23.554Z,102022.63
2022-11-12T10:04:00.485Z,102011.25
2022-11-12T10:05:20.495Z,102020.28
2022-11-12T10:06:45.166Z,102021.97
2022-11-12T10:08:24.121Z,102018.09
2022-11-12T10:09:48.307Z,102016.56
2022-11-12T10:11:27.202Z,102009.28
2022-11-12T10:13:05.415Z,102007.09
2022-11-12T10:14:31.558Z,102016.09
2022-11-12T10:16:17.666Z,102008.38
2022-11-12T10:17:39.955Z,102007.06
2022-11-12T10:19:15.096Z,102010.47
2022-11-12T10:20:54.833Z,102008.31
2022-11-12T10:22:26.925Z,102007.00
2022-11-12T10:23:47.259Z,102008.75
2022-11-12T10:25:17.547Z,102000.38
2022-11-12T10:26:37.732Z,101998.00
2022-11-12T10:27:57.598Z,101998.00
2022-11-12T10:29:27.342Z,101999.47
2022-11-12T10:30:47.234Z,101994.56
2022-11-12T10:32:09.341Z,101993.50
2022-11-12T10:33:30.081Z,101986.84
2022-11-12T10:34:50.287Z,101994.97
2022-11-12T10:36:21.587Z,101996.44
2022-11-12T10:37:49.565Z,101989.38
2022-11-12T10:39:09.688Z,101991.09
2022-11-12T10:40:29.817Z,101987.69
2022-11-12T10:41:51.271Z,101984.91
2022-11-12T10:43:17.125Z,101991.09
2022-11-12T10:44:37.403Z,101983.34
2022-11-12T10:45:57.705Z,101985.50
2022-11-12T10:47:33.505Z,101988.06
2022-11-12T10:48:54.472Z,101987.84
2022-11-12T10:50:14.552Z,101982.03
2022-11-12T10:51:35.753Z,101990.63
2022-11-12T10:52:56.744Z,101983.34
2022-11-12T10:54:35.292Z,101974.72
2022-11-12T10:55:56.569Z,101977.28
2022-11-12T10:57:19.522Z,101984.59
2022-11-12T10:58:39.379Z,101979.00
2022-11-12T11:00:14.703Z,101980.72
2022-11-12T11:01:35.907Z,101975.34
2022-11-12T11:02:56.167Z,101975.59
2022-11-12T11:04:16.967Z,101973.41
2022-11-12T11:05:37.564Z,101974.28
2022-11-12T11:06:58.237Z,101974.03
2022-11-12T11:08:35.691Z,101969.09
2022-11-12T11:09:58.840Z,101967.78
2022-11-12T11:11:22.635Z,101971.19
2022-11-12T11:12:42.758Z,101967.09
2022-11-12T11:14:20.305Z,101964.91
2022-11-12T11:15:40.192Z,101962.75
2022-11-12T11:17:01.766Z,101968.97
2022-11-12T11:18:21.654Z,101971.53
2022-11-12T11:19:41.912Z,101972.38
2022-11-12T11:21:01.950Z,101968.50
2022-11-12T11:22:23.840Z,101972.84
2022-11-12T11:24:02.478Z,101974.56
2022-11-12T11:25:28.396Z,101977.97
2022-11-12T11:27:00.671Z,101969.38
2022-11-12T11:28:38.863Z,101969.13
2022-11-12T11:30:08.152Z,101968.50
2022-11-12T11:31:42.458Z,101975.19
2022-11-12T11:33:05.744Z,101970.69
2022-11-12T11:34:28.819Z,101969.59
2022-11-12T11:36:07.534Z,101960.13
2022-11-12T11:37:27.883Z,101964.00
2022-11-12T11:39:01.489Z,101956.88
2022-11-12T11:40:25.778Z,101963.69
2022-11-12T11:41:45.819Z,101961.09
2022-11-12T11:43:20.931Z,101956.72
2022-11-12T11:44:49.696Z,101951.53
2022-11-12T11:46:09.521Z,101947.44
2022-11-12T11:48:05.165Z,101948.06
2022-11-12T11:49:33.574Z,101951.47
2022-11-12T11:51:13.631Z,101954.88
2022-11-12T11:52:52.218Z,101945.88
2022-11-12T11:54:15.457Z,101946.97
2022-11-12T11:55:54.780Z,101949.16
2022-11-12T11:57:21.506Z,101952.78
2022-11-12T11:58:44.108Z,101950.00
2022-11-12T12:00:04.532Z,101944.16
2022-11-12T12:01:30.558Z,101942.22
2022-11-12T12:02:56.625Z,101950.38
2022-11-12T12:04:25.575Z,101941.13
2022-11-12T12:06:04.119Z,101935.16
2022-11-12T12:07:30.222Z,101943.31
2022-11-12T12:08:53.352Z,101936.88
2022-11-12T12:10:53.280Z,101942.47
2022-11-12T12:12:11.003Z,101939.28
2022-11-12T12:13:40.251Z,101936.50
2022-11-12T12:15:06.938Z,101936.94
2022-11-12T12:16:30.598Z,101938.63
2022-11-12T12:17:54.031Z,101931.09
2022-11-12T12:19:20.205Z,101934.31
2022-11-12T12:20:42.306Z,101933.47
2022-11-12T12:22:02.182Z,101926.16
2022-11-12T12:23:25.410Z,101933.47
2022-11-12T12:24:47.913Z,101921.19
2022-11-12T12:26:10.268Z,101924.84
2022-11-12T12:27:31.264Z,101924.59
2022-11-12T12:28:51.502Z,101922.91
2022-11-12T12:30:15.692Z,101917.31
2022-11-12T12:31:38.899Z,101922.91
2022-11-12T12:32:59.766Z,101923.53
2022-11-12T12:34:19.669Z,101924.38
2022-11-12T12:35:41.038Z,101918.53
2022-11-12T12:37:10.085Z,101918.31
2022-11-12T12:38:38.775Z,101908.84
2022-11-12T12:40:02.028Z,101915.28
2022-11-12T12:41:30.176Z,101909.69
2022-11-12T12:42:54.611Z,101906.91
2022-11-12T12:44:14.973Z,101910.53
2022-11-12T12:45:41.645Z,101908.41
2022-11-12T12:47:01.530Z,101902.81
2022-11-12T12:48:23.081Z,101904.09
2022-11-12T12:49:42.993Z,101902.41
2022-11-12T12:51:03.095Z,101909.69
2022-11-12T12:52:23.240Z,101901.06
2022-11-12T12:53:43.391Z,101909.69
2022-11-12T12:55:03.615Z,101890.97
2022-11-12T12:56:23.465Z,101898.06
2022-11-12T12:57:43.782Z,101897.59
2022-11-12T12:59:08.266Z,101894.78
2022-11-12T13:00:32.094Z,101896.25
2022-11-12T13:01:58.585Z,101900.53
2022-11-12T13:03:37.052Z,101900.53
2022-11-12T13:04:57.656Z,101893.84
2022-11-12T13:06:23.754Z,101894.69
2022-11-12T13:07:47.139Z,101890.19
2022-11-12T13:09:08.124Z,101886.78
2022-11-12T13:10:33.952Z,101881.81
2022-11-12T13:12:06.255Z,101885.47
2022-11-12T13:13:32.335Z,101876.22
2022-11-12T13:15:11.671Z,101887.16
2022-11-12T13:16:50.453Z,101884.38
2022-11-12T13:18:16.853Z,101888.00
2022-11-12T13:19:56.930Z,101878.56
2022-11-12T13:21:17.372Z,101872.09
2022-11-12T13:22:39.905Z,101871.47
2022-11-12T13:24:06.918Z,101875.84
2022-11-12T13:25:27.130Z,101876.94
2022-11-12T13:26:51.428Z,101873.03
2022-11-12T13:28:11.535Z,101869.41
2022-11-12T13:29:31.696Z,101868.53
2022-11-12T13:30:52.002Z,101865.75
2022-11-12T13:32:31.072Z,101869.63
2022-11-12T13:33:51.017Z,101868.53
2022-11-12T13:35:23.601Z,101867.47
2022-11-12T13:36:54.102Z,101864.41
2022-11-12T13:38:16.785Z,101864.66
2022-11-12T13:39:36.776Z,101861.25
2022-11-12T13:41:09.621Z,101856.75
2022-11-12T13:42:48.389Z,101858.94
2022-11-12T13:44:09.102Z,101855.06
2022-11-12T13:45:29.057Z,101852.00
2022-11-12T13:46:49.394Z,101858.47
2022-11-12T13:48:09.750Z,101857.38
2022-11-12T13:49:29.802Z,101857.97
2022-11-12T13:50:50.925Z,101856.03
2022-11-12T13:52:12.103Z,101859.69
2022-11-12T13:53:32.294Z,101852.16
2022-11-12T13:55:05.409Z,101846.31
2022-11-12T13:56:34.972Z,101851.91
2022-11-12T13:57:55.300Z,101850.81
2022-11-12T13:59:16.246Z,101852.53
2022-11-12T14:00:36.315Z,101850.19
2022-11-12T14:01:56.481Z,101846.56
2022-11-12T14:03:17.412Z,101830.13
2022-11-12T14:04:37.373Z,101842.69
2022-11-12T14:05:57.643Z,101849.34
2022-11-12T14:07:26.831Z,101846.56
2022-11-12T14:08:50.561Z,101847.41
2022-11-12T14:10:10.533Z,101847.41
2022-11-12T14:11:52.559Z,101851.91
2022-11-12T14:13:18.323Z,101853.63
2022-11-12T14:14:50.195Z,101843.28
2022-11-12T14:16:10.264Z,101849.72
2022-11-12T14:17:30.169Z,101845.88
2022-11-12T14:18:55.947Z,101837.47
2022-11-12T14:20:39.037Z,101845.03
2022-11-12T14:22:02.375Z,101846.72
2022-11-12T14:23:25.123Z,101841.97
2022-11-12T14:24:46.864Z,101837.25
2022-11-12T14:26:06.844Z,101841.97
2022-11-12T14:27:26.668Z,101837.25
2022-11-12T14:28:46.395Z,101836.41
2022-11-12T14:30:22.775Z,101839.44
2022-11-12T14:31:42.858Z,101829.94
2022-11-12T14:33:09.334Z,101831.25
2022-11-12T14:34:30.167Z,101822.00
2022-11-12T14:35:50.204Z,101832.94
2022-11-12T14:37:16.034Z,101833.19
2022-11-12T14:38:46.159Z,101828.25
2022-11-12T14:40:14.572Z,101837.09
2022-11-12T14:41:35.324Z,101828.69
2022-11-12T14:42:55.655Z,101827.22
2022-11-12T14:44:48.263Z,101826.13
2022-11-12T14:46:08.760Z,101822.50
2022-11-12T14:47:28.660Z,101829.78
2022-11-12T14:48:50.152Z,101821.41
2022-11-12T14:50:17.087Z,101818.38
2022-11-12T14:51:39.325Z,101817.50
2022-11-12T14:53:04.299Z,101815.31
2022-11-12T14:54:36.851Z,101816.19
2022-11-12T14:55:56.785Z,101816.19
2022-11-12T14:57:26.545Z,101816.19
2022-11-12T14:58:46.550Z,101814.28
2022-11-12T15:00:16.617Z,101817.91
2022-11-12T15:03:21.768Z,101806.72
2022-11-12T15:04:42.810Z,101811.22
2022-11-12T15:06:02.993Z,101806.72
2022-11-12T15:07:26.930Z,101808.44
2022-11-12T15:08:48.862Z,101802.84
2022-11-12T15:10:27.771Z,101809.28
2022-11-12T15:11:47.809Z,101803.28
2022-11-12T15:13:08.454Z,101803.28
2022-11-12T15:14:28.823Z,101808.03
2022-11-12T15:15:55.683Z,101817.50
2022-11-12T15:17:24.025Z,101811.91
2022-11-12T15:18:43.793Z,101806.34
2022-11-12T15:20:04.435Z,101804.38
2022-11-12T15:21:27.696Z,101804.38
2022-11-12T15:22:51.027Z,101806.34
2022-11-12T15:24:10.952Z,101805.47
2022-11-12T15:25:30.998Z,101803.16
2022-11-12T15:26:51.307Z,101806.19
2022-11-12T15:28:12.002Z,101797.22
2022-11-12T15:29:33.133Z,101796.97
2022-11-12T15:31:05.482Z,101795.75
2022-11-12T15:32:25.376Z,101790.16
2022-11-12T15:33:45.589Z,101792.94
2022-11-12T15:35:05.579Z,101796.19
2022-11-12T15:36:25.698Z,101800.94
2022-11-12T15:37:45.883Z,101798.84
2022-11-12T15:39:06.068Z,101793.25
2022-11-12T15:40:26.319Z,101788.53
2022-11-12T15:41:46.461Z,101799.72
2022-11-12T15:43:11.558Z,101790.09
2022-11-12T15:44:32.406Z,101784.09
2022-11-12T15:45:52.526Z,101794.84